Time;durP1;ratioP1;P1;durP2;ratioP2;P2;SDS_P1;SDS_P2;PMS_P1;PMS_P2;Temp;Humidity;BMP_temperature;BMP_pressure;BME280_temperature;BME280_humidity;BME280_pressure;Samples;Min_cycle;Max_cycle;Signal;HPM_P1;HPM_P2
2021/06/30 00:00:41;;;;;;;3.70;1.50;;;;;;;19.59;75.71;100118.84;5075139;28;20231;-78
2021/06/30 00:03:07;;;;;;;4.50;1.30;;;;;;;19.54;75.73;100118.50;5079488;28;20197;-81
2021/06/30 00:05:35;;;;;;;3.80;1.40;;;;;;;19.49;76.12;100110.03;5069609;28;20228;-81
2021/06/30 00:08:02;;;;;;;4.63;1.40;;;;;;;19.47;76.07;100111.22;5062219;28;20564;-78
2021/06/30 00:10:29;;;;;;;3.10;1.30;;;;;;;19.42;76.01;100117.09;5075731;28;20225;-80
2021/06/30 00:12:55;;;;;;;3.73;0.97;;;;;;;19.39;76.30;100115.56;5074281;28;20667;-78
2021/06/30 00:15:25;;;;;;;2.43;1.40;;;;;;;19.35;76.47;100111.50;5074113;28;20196;-80
2021/06/30 00:17:52;;;;;;;4.27;1.30;;;;;;;19.31;76.71;100115.56;5075707;28;20207;-78
2021/06/30 00:20:19;;;;;;;5.53;1.70;;;;;;;19.28;76.68;100113.22;5081160;28;20221;-79
2021/06/30 00:22:47;;;;;;;4.10;1.40;;;;;;;19.24;76.85;100111.84;5066119;28;20230;-80
2021/06/30 00:25:15;;;;;;;7.10;1.67;;;;;;;19.22;76.92;100116.56;5076935;28;20230;-83
2021/06/30 00:27:43;;;;;;;3.53;1.40;;;;;;;19.19;76.94;100116.03;5065639;28;20199;-81
2021/06/30 00:30:11;;;;;;;2.67;1.47;;;;;;;19.15;76.98;100118.25;5073746;28;20226;-79
2021/06/30 00:32:37;;;;;;;7.23;1.53;;;;;;;19.15;77.20;100118.25;5082666;28;20211;-79
2021/06/30 00:35:04;;;;;;;4.73;1.20;;;;;;;19.13;77.08;100109.47;5075168;28;20214;-82
2021/06/30 00:37:31;;;;;;;3.93;1.30;;;;;;;19.11;77.40;100111.47;5074048;28;20201;-79
2021/06/30 00:39:59;;;;;;;2.10;1.20;;;;;;;19.10;77.38;100108.94;5066627;28;20252;-80
2021/06/30 00:42:29;;;;;;;2.80;1.50;;;;;;;19.09;77.36;100105.41;5070142;28;20210;-79
2021/06/30 00:44:55;;;;;;;3.23;1.47;;;;;;;19.06;77.66;100109.28;5058136;28;20207;-78
2021/06/30 00:47:22;;;;;;;4.43;1.57;;;;;;;19.06;77.65;100108.44;5073871;28;20207;-78
2021/06/30 00:49:48;;;;;;;1.97;1.57;;;;;;;19.07;77.84;100110.13;5079718;28;20227;-81
2021/06/30 00:52:15;;;;;;;8.63;1.90;;;;;;;19.05;77.76;100115.69;5067702;28;20206;-82
2021/06/30 00:54:42;;;;;;;5.87;1.70;;;;;;;19.04;77.93;100113.97;5060056;28;20689;-79
2021/06/30 00:57:12;;;;;;;3.07;1.70;;;;;;;19.04;78.22;100121.22;5080078;28;20195;-81
2021/06/30 00:59:39;;;;;;;2.17;1.40;;;;;;;19.02;78.30;100125.94;5072498;28;20240;-79
2021/06/30 01:02:05;;;;;;;2.50;1.83;;;;;;;19.03;78.34;100116.84;5069648;28;20211;-80
2021/06/30 01:04:32;;;;;;;5.50;1.97;;;;;;;19.02;78.42;100117.84;5061996;28;20578;-81
2021/06/30 01:06:59;;;;;;;5.90;1.60;;;;;;;19.00;78.40;100115.31;5073523;28;20221;-80
2021/06/30 01:09:25;;;;;;;3.63;1.77;;;;;;;19.00;78.45;100115.31;5062743;28;20238;-79
2021/06/30 01:11:52;;;;;;;4.83;1.83;;;;;;;18.96;78.26;100113.97;5078490;28;20211;-80
2021/06/30 01:14:26;;;;;;;2.40;1.40;;;;;;;18.94;78.13;100116.00;5075042;28;20201;-80
2021/06/30 01:16:53;;;;;;;3.53;1.60;;;;;;;18.90;78.06;100111.91;5080325;28;20202;-80
2021/06/30 01:19:21;;;;;;;3.80;1.57;;;;;;;18.88;78.06;100116.63;5075902;28;20221;-81
2021/06/30 01:21:47;;;;;;;2.37;1.43;;;;;;;18.87;78.16;100119.50;5074598;28;20581;-81
2021/06/30 01:24:16;;;;;;;2.93;1.50;;;;;;;18.85;78.07;100116.97;5070484;28;20212;-81
2021/06/30 01:26:43;;;;;;;1.80;1.53;;;;;;;18.84;78.07;100109.03;5069497;28;20231;-81
2021/06/30 01:29:09;;;;;;;3.93;1.70;;;;;;;18.84;78.29;100122.50;5077275;28;20648;-80
2021/06/30 01:31:36;;;;;;;2.00;1.80;;;;;;;18.84;78.31;100117.13;5075183;28;20211;-81
2021/06/30 01:34:03;;;;;;;2.97;1.57;;;;;;;18.84;78.10;100109.03;5079039;28;20572;-81
2021/06/30 01:36:30;;;;;;;6.10;2.00;;;;;;;18.84;78.28;100115.25;5073448;28;20201;-81
2021/06/30 01:38:56;;;;;;;4.43;2.03;;;;;;;18.84;78.70;100117.13;5077287;28;20200;-81
2021/06/30 01:41:24;;;;;;;2.67;1.50;;;;;;;18.85;78.67;100121.50;5077764;28;20198;-80
2021/06/30 01:43:51;;;;;;;4.60;1.93;;;;;;;18.85;78.87;100130.44;5072436;28;20296;-79
2021/06/30 01:46:17;;;;;;;4.03;2.43;;;;;;;18.85;79.12;100135.84;5072930;28;20663;-79
2021/06/30 01:48:47;;;;;;;3.50;2.40;;;;;;;18.83;79.22;100154.03;5071898;28;20202;-79
2021/06/30 01:51:14;;;;;;;5.63;2.90;;;;;;;18.81;79.45;100158.75;5071976;28;20229;-80
2021/06/30 01:53:40;;;;;;;3.23;2.60;;;;;;;18.79;79.60;100168.03;5071659;28;20659;-80
2021/06/30 01:56:07;;;;;;;4.47;3.30;;;;;;;18.77;79.83;100170.91;5075964;28;20203;-80
2021/06/30 01:58:35;;;;;;;6.10;3.40;;;;;;;18.77;80.07;100183.53;5074854;28;20206;-79
2021/06/30 02:01:01;;;;;;;5.13;2.83;;;;;;;18.75;80.16;100175.59;5070785;28;20235;-80
2021/06/30 02:03:28;;;;;;;5.67;3.30;;;;;;;18.73;80.20;100185.72;5070551;28;20215;-81
2021/06/30 02:05:54;;;;;;;6.00;2.70;;;;;;;18.69;80.61;100181.63;5070282;28;20238;-80
2021/06/30 02:08:21;;;;;;;5.57;2.30;;;;;;;18.62;80.42;100181.44;5069533;28;20208;-80
2021/06/30 02:10:48;;;;;;;3.03;2.30;;;;;;;18.53;80.13;100171.56;5063193;28;20701;-81
2021/06/30 02:13:15;;;;;;;2.47;2.13;;;;;;;18.46;80.41;100162.41;5067490;28;20546;-80
2021/06/30 02:15:43;;;;;;;2.97;2.40;;;;;;;18.44;80.79;100155.53;5068262;28;20719;-81
2021/06/30 02:18:09;;;;;;;3.53;2.40;;;;;;;18.41;80.83;100139.66;5076183;28;20204;-80
2021/06/30 02:20:37;;;;;;;4.03;2.67;;;;;;;18.37;80.84;100133.72;5073478;28;20224;-79
2021/06/30 02:23:04;;;;;;;2.47;2.13;;;;;;;18.34;80.99;100128.66;5080784;28;20203;-79
2021/06/30 02:25:32;;;;;;;4.23;2.40;;;;;;;18.34;81.28;100128.66;5080892;28;20209;-80
2021/06/30 02:27:59;;;;;;;3.90;2.87;;;;;;;18.34;81.27;100124.09;5073347;28;20197;-81
2021/06/30 02:30:28;;;;;;;4.40;2.73;;;;;;;18.33;81.25;100127.81;5076577;28;20232;-79
2021/06/30 02:33:01;;;;;;;4.33;2.90;;;;;;;18.31;81.17;100115.50;5064241;28;20204;-79
2021/06/30 02:35:28;;;;;;;2.73;2.20;;;;;;;18.28;81.42;100113.09;5073465;28;20201;-80
2021/06/30 02:37:57;;;;;;;3.20;2.60;;;;;;;18.26;81.52;100109.75;5066027;28;20632;-80
2021/06/30 02:40:25;;;;;;;2.93;2.37;;;;;;;18.23;81.58;100110.91;5076653;28;20234;-80
2021/06/30 02:42:53;;;;;;;2.73;2.30;;;;;;;18.19;81.68;100103.28;5067034;28;20215;-80
2021/06/30 02:45:21;;;;;;;6.73;2.70;;;;;;;18.20;81.84;100110.38;5075504;28;20301;-79
2021/06/30 02:47:50;;;;;;;3.60;2.80;;;;;;;18.17;81.86;100095.38;5071267;28;20224;-80
2021/06/30 02:50:19;;;;;;;3.27;2.60;;;;;;;18.16;82.01;100098.22;5067053;28;20233;-79
2021/06/30 02:52:47;;;;;;;3.57;3.00;;;;;;;18.14;82.12;100094.84;5069673;28;20230;-79
2021/06/30 02:55:14;;;;;;;3.03;2.83;;;;;;;18.12;82.22;100094.13;5073601;28;20211;-79
2021/06/30 02:57:42;;;;;;;4.37;3.00;;;;;;;18.10;82.22;100096.16;5069128;28;20214;-79
2021/06/30 03:00:13;;;;;;;3.63;3.00;;;;;;;18.10;82.28;100101.53;5068003;28;20336;-79
2021/06/30 03:02:40;;;;;;;3.07;2.87;;;;;;;18.07;82.33;100094.63;5070553;28;20203;-79
2021/06/30 03:05:08;;;;;;;4.67;3.07;;;;;;;18.06;82.52;100092.09;5068298;28;20208;-79
2021/06/30 03:07:36;;;;;;;3.50;3.13;;;;;;;18.07;82.59;100100.03;5069156;28;20227;-78
2021/06/30 03:10:03;;;;;;;4.43;2.90;;;;;;;18.07;82.49;100094.63;5073878;28;20223;-78
2021/06/30 03:12:30;;;;;;;3.53;2.63;;;;;;;18.07;82.50;100088.41;5066910;28;20222;-78
2021/06/30 03:14:56;;;;;;;3.43;2.80;;;;;;;18.06;82.62;100092.09;5074465;28;20678;-78
2021/06/30 03:17:23;;;;;;;3.80;3.50;;;;;;;18.04;82.67;100093.09;5064342;28;20204;-78
2021/06/30 03:19:49;;;;;;;4.57;3.47;;;;;;;18.03;82.70;100091.41;5073748;28;20226;-78
2021/06/30 03:22:16;;;;;;;3.97;3.57;;;;;;;18.00;82.70;100091.72;5069199;28;20207;-80
2021/06/30 03:24:44;;;;;;;4.10;3.57;;;;;;;18.00;82.74;100093.56;5066958;28;20224;-79
2021/06/30 03:27:10;;;;;;;4.47;3.87;;;;;;;17.99;82.96;100086.50;5077589;28;20848;-79
2021/06/30 03:29:37;;;;;;;4.30;3.57;;;;;;;17.99;82.86;100094.56;5066182;28;20242;-79
2021/06/30 03:32:04;;;;;;;4.60;4.20;;;;;;;17.99;82.94;100089.19;5072322;28;20226;-80
2021/06/30 03:34:30;;;;;;;5.23;4.60;;;;;;;17.97;82.99;100089.34;5072418;28;20212;-80
2021/06/30 03:36:57;;;;;;;5.27;4.57;;;;;;;17.98;83.33;100082.09;5085767;28;20203;-79
2021/06/30 03:39:23;;;;;;;4.60;4.20;;;;;;;18.01;83.47;100084.50;5066968;28;20584;-80
2021/06/30 03:41:51;;;;;;;5.53;4.93;;;;;;;18.02;83.36;100088.88;5065798;28;20200;-79
2021/06/30 03:44:18;;;;;;;5.93;4.53;;;;;;;18.01;83.39;100085.34;5069740;28;20211;-79
2021/06/30 03:46:44;;;;;;;5.17;4.77;;;;;;;18.02;83.53;100089.72;5065548;28;20235;-80
2021/06/30 03:49:11;;;;;;;7.10;5.73;;;;;;;18.03;83.57;100096.81;5071180;28;20647;-80
2021/06/30 03:51:37;;;;;;;6.63;4.97;;;;;;;18.04;83.71;100106.56;5067606;28;20686;-79
2021/06/30 03:54:08;;;;;;;5.43;4.93;;;;;;;18.04;83.46;100106.56;5072289;28;20586;-79
2021/06/30 03:56:34;;;;;;;6.50;5.70;;;;;;;18.03;83.68;100110.28;5076609;28;20214;-79
2021/06/30 03:59:03;;;;;;;6.37;5.00;;;;;;;18.03;83.69;100110.28;5065076;28;20206;-79
2021/06/30 04:01:29;;;;;;;5.30;4.80;;;;;;;18.04;83.82;100117.34;5067831;28;20216;-80
2021/06/30 04:03:59;;;;;;;7.80;5.57;;;;;;;18.06;83.69;100119.06;5067791;28;20229;-80
2021/06/30 04:06:25;;;;;;;6.53;5.57;;;;;;;18.06;83.86;100124.44;5066229;28;20307;-80
2021/06/30 04:08:52;;;;;;;5.93;5.43;;;;;;;18.06;83.87;100111.81;5085306;28;20201;-79
2021/06/30 04:11:18;;;;;;;8.07;6.63;;;;;;;18.05;83.83;100126.28;5076629;28;20600;-79
2021/06/30 04:13:45;;;;;;;6.10;5.50;;;;;;;18.04;83.71;100124.59;5070701;28;20566;-80
2021/06/30 04:16:14;;;;;;;6.37;5.77;;;;;;;18.03;83.86;100128.28;5074301;28;20200;-79
2021/06/30 04:18:40;;;;;;;8.20;6.20;;;;;;;18.03;83.94;100125.59;5072449;28;20206;-79
2021/06/30 04:21:08;;;;;;;7.03;6.33;;;;;;;18.03;83.94;100125.59;5072850;28;20243;-79
2021/06/30 04:23:35;;;;;;;6.57;5.87;;;;;;;18.02;83.96;100124.75;5071514;28;20238;-79
2021/06/30 04:26:02;;;;;;;6.73;6.10;;;;;;;18.01;84.01;100133.84;5072444;28;20208;-79
2021/06/30 04:28:29;;;;;;;7.03;6.33;;;;;;;18.01;84.05;100133.00;5075916;28;20228;-79
2021/06/30 04:30:55;;;;;;;8.10;6.80;;;;;;;18.01;84.38;100133.00;5069783;28;20236;-80
2021/06/30 04:33:23;;;;;;;7.67;6.43;;;;;;;18.02;84.40;100130.13;5062750;28;20204;-79
2021/06/30 04:35:50;;;;;;;7.27;6.57;;;;;;;18.03;84.42;100136.38;5063174;28;20213;-79
2021/06/30 04:38:17;;;;;;;6.27;5.67;;;;;;;18.02;84.23;100137.38;5070340;28;20205;-79
2021/06/30 04:40:44;;;;;;;7.00;6.30;;;;;;;18.00;84.30;100137.53;5067506;28;20226;-79
2021/06/30 04:43:10;;;;;;;7.67;6.43;;;;;;;17.98;84.29;100144.91;5066131;28;20206;-79
2021/06/30 04:45:37;;;;;;;8.53;6.47;;;;;;;17.97;84.36;100137.84;5065561;28;20230;-79
2021/06/30 04:48:04;;;;;;;7.60;6.80;;;;;;;17.97;84.39;100140.53;5066039;28;20695;-79
2021/06/30 04:50:32;;;;;;;8.80;6.93;;;;;;;17.98;84.55;100138.69;5070459;28;20236;-80
2021/06/30 04:52:58;;;;;;;8.80;6.57;;;;;;;17.97;84.59;100148.63;5059612;28;20587;-80
2021/06/30 04:55:25;;;;;;;7.93;7.07;;;;;;;17.95;84.59;100145.22;5063682;28;20220;-80
2021/06/30 04:57:52;;;;;;;7.97;7.17;;;;;;;17.96;84.58;100146.91;5066947;28;20203;-79
2021/06/30 05:00:19;;;;;;;8.10;7.20;;;;;;;17.96;84.74;100144.22;5073049;28;20230;-79
2021/06/30 05:02:45;;;;;;;9.43;7.33;;;;;;;17.97;84.79;100143.22;5069787;28;20201;-79
2021/06/30 05:05:12;;;;;;;9.07;7.93;;;;;;;17.96;84.60;100144.22;5061500;28;20220;-79
2021/06/30 05:07:40;;;;;;;11.03;9.10;;;;;;;17.94;84.62;100138.16;5071876;28;20224;-80
2021/06/30 05:10:10;;;;;;;10.20;8.03;;;;;;;17.92;84.67;100137.44;5082976;28;20519;-81
2021/06/30 05:12:36;;;;;;;8.30;7.50;;;;;;;17.92;84.54;100132.06;5079630;28;20204;-81
2021/06/30 05:15:03;;;;;;;10.20;8.73;;;;;;;17.90;84.74;100141.34;5077377;28;20215;-80
2021/06/30 05:17:30;;;;;;;9.30;8.30;;;;;;;17.89;84.84;100145.88;5066655;28;20202;-80
2021/06/30 05:19:56;;;;;;;10.53;8.07;;;;;;;17.88;84.73;100146.88;5075606;28;20245;-80
2021/06/30 05:22:23;;;;;;;8.47;7.67;;;;;;;17.87;84.82;100153.25;5077959;28;20558;-80
2021/06/30 05:24:50;;;;;;;10.23;8.87;;;;;;;17.88;84.93;100140.63;5069982;28;20206;-80
2021/06/30 05:27:17;;;;;;;8.40;7.53;;;;;;;17.86;84.81;100150.72;5062565;28;20228;-80
2021/06/30 05:29:44;;;;;;;11.77;8.50;;;;;;;17.85;84.92;100144.50;5080388;28;20236;-80
2021/06/30 05:32:10;;;;;;;11.30;9.20;;;;;;;17.86;84.92;100148.88;5080509;28;20220;-81
2021/06/30 05:34:37;;;;;;;9.97;8.97;;;;;;;17.86;84.80;100142.63;5082387;28;20853;-81
2021/06/30 05:37:04;;;;;;;12.10;9.30;;;;;;;17.86;84.76;100134.56;5094779;28;20201;-81
2021/06/30 05:39:30;;;;;;;10.37;9.23;;;;;;;17.86;84.85;100139.94;5078886;28;20231;-81
2021/06/30 05:41:58;;;;;;;12.47;9.60;;;;;;;17.87;84.85;100142.50;5079409;28;20228;-82
2021/06/30 05:44:25;;;;;;;12.27;9.93;;;;;;;17.87;84.80;100147.88;5085836;28;20211;-82
2021/06/30 05:46:51;;;;;;;12.03;9.83;;;;;;;17.89;84.72;100143.19;5077808;28;20568;-81
2021/06/30 05:49:18;;;;;;;11.50;10.30;;;;;;;17.91;84.68;100153.81;5086330;28;20220;-82
2021/06/30 05:51:45;;;;;;;11.37;9.77;;;;;;;17.92;84.78;100156.31;5076393;28;20219;-82
2021/06/30 05:54:11;;;;;;;10.70;9.63;;;;;;;17.92;84.66;100150.94;5083546;28;20258;-82
2021/06/30 05:56:39;;;;;;;12.03;10.83;;;;;;;17.92;84.67;100163.53;5071161;28;20584;-82
2021/06/30 05:59:07;;;;;;;13.13;11.00;;;;;;;17.92;84.65;100159.00;5082321;28;20205;-81
2021/06/30 06:01:34;;;;;;;11.13;10.00;;;;;;;17.91;84.58;100159.19;5079237;28;20206;-81
2021/06/30 06:04:01;;;;;;;12.80;10.53;;;;;;;17.88;84.46;100157.66;5090751;28;20223;-81
2021/06/30 06:06:28;;;;;;;14.90;11.23;;;;;;;17.88;84.36;100164.88;5095069;28;20210;-81
2021/06/30 06:08:54;;;;;;;12.50;10.60;;;;;;;17.87;84.34;100163.19;5094230;28;20281;-82
2021/06/30 06:11:21;;;;;;;14.00;11.20;;;;;;;17.86;84.30;100161.50;5087477;28;20220;-82
2021/06/30 06:13:48;;;;;;;13.17;11.13;;;;;;;17.83;84.24;100165.34;5080440;28;20299;-82
2021/06/30 06:16:20;;;;;;;14.80;11.03;;;;;;;17.82;84.27;100160.97;5086825;28;20201;-80
2021/06/30 06:18:47;;;;;;;13.07;11.23;;;;;;;17.83;84.46;100157.25;5074201;28;20669;-79
2021/06/30 06:21:14;;;;;;;17.93;11.57;;;;;;;17.83;84.36;100167.19;5071992;28;20244;-78
2021/06/30 06:23:40;;;;;;;12.47;10.73;;;;;;;17.83;84.33;100175.28;5076948;28;20205;-80
2021/06/30 06:26:07;;;;;;;13.03;10.83;;;;;;;17.81;84.45;100175.44;5076214;28;20307;-80
2021/06/30 06:28:34;;;;;;;12.33;10.43;;;;;;;17.78;84.36;100166.81;5078046;28;20221;-80
2021/06/30 06:31:02;;;;;;;10.50;9.40;;;;;;;17.73;84.22;100164.59;5071191;28;20253;-79
2021/06/30 06:33:30;;;;;;;11.90;10.17;;;;;;;17.70;84.34;100175.69;5076781;28;20239;-78
2021/06/30 06:35:58;;;;;;;11.23;9.67;;;;;;;17.70;84.42;100175.69;5077383;28;20208;-79
2021/06/30 06:38:25;;;;;;;21.53;10.07;;;;;;;17.66;84.29;100174.28;5078114;28;20289;-79
2021/06/30 06:40:53;;;;;;;10.07;8.73;;;;;;;17.62;84.43;100187.16;5074654;28;20227;-79
2021/06/30 06:43:19;;;;;;;11.10;9.90;;;;;;;17.60;84.17;100178.38;5068659;28;20211;-78
2021/06/30 06:45:46;;;;;;;10.00;8.93;;;;;;;17.60;84.40;100182.94;5079774;28;20204;-79
2021/06/30 06:48:12;;;;;;;11.03;8.80;;;;;;;17.59;84.46;100181.25;5074366;28;20231;-80
2021/06/30 06:50:41;;;;;;;11.53;8.83;;;;;;;17.59;84.31;100183.94;5078351;28;20315;-80
2021/06/30 06:53:07;;;;;;;13.70;9.20;;;;;;;17.56;84.11;100186.91;5074345;28;20277;-80
2021/06/30 06:55:34;;;;;;;10.40;9.03;;;;;;;17.53;84.22;100182.72;5078751;28;20231;-79
2021/06/30 06:58:01;;;;;;;10.70;9.00;;;;;;;17.52;84.40;100183.72;5071760;28;20290;-79
2021/06/30 07:00:27;;;;;;;11.30;8.03;;;;;;;17.54;84.36;100183.56;5071450;28;20225;-79
2021/06/30 07:02:54;;;;;;;9.10;8.20;;;;;;;17.54;84.32;100186.25;5073971;28;20200;-79
2021/06/30 07:05:20;;;;;;;10.10;8.63;;;;;;;17.53;84.33;100188.09;5077946;28;20203;-79
2021/06/30 07:07:48;;;;;;;12.87;10.03;;;;;;;17.55;84.50;100179.88;5073312;28;20227;-79
2021/06/30 07:10:15;;;;;;;12.30;9.43;;;;;;;17.57;84.55;100185.94;5075538;28;20221;-79
2021/06/30 07:12:41;;;;;;;10.63;8.60;;;;;;;17.60;84.89;100182.94;5070112;28;20206;-79
2021/06/30 07:15:10;;;;;;;9.70;8.57;;;;;;;17.62;84.54;100187.16;5075404;28;20210;-79
2021/06/30 07:17:37;;;;;;;12.97;9.53;;;;;;;17.64;84.61;100181.66;5078205;28;20662;-79
2021/06/30 07:20:04;;;;;;;14.27;9.67;;;;;;;17.67;84.39;100189.44;5076831;28;20230;-78
2021/06/30 07:22:31;;;;;;;11.73;9.63;;;;;;;17.69;84.52;100188.28;5076591;28;20204;-77
2021/06/30 07:24:59;;;;;;;10.37;9.30;;;;;;;17.71;84.45;100188.13;5076953;28;20197;-78
2021/06/30 07:27:26;;;;;;;10.93;8.50;;;;;;;17.74;84.59;100190.50;5073571;28;20608;-78
2021/06/30 07:29:52;;;;;;;11.07;9.37;;;;;;;17.75;84.46;100186.81;5069723;28;20238;-79
2021/06/30 07:32:19;;;;;;;9.53;8.50;;;;;;;17.75;84.60;100186.81;5072304;28;20679;-78
2021/06/30 07:34:45;;;;;;;8.63;7.73;;;;;;;17.75;84.25;100196.72;5085760;28;20200;-78
2021/06/30 07:37:12;;;;;;;8.83;7.93;;;;;;;17.72;84.03;100202.47;5093002;28;20291;-78
2021/06/30 07:39:38;;;;;;;9.33;7.80;;;;;;;17.71;83.97;100201.59;5084836;28;20247;-78
2021/06/30 07:42:07;;;;;;;9.87;8.13;;;;;;;17.69;83.67;100201.75;5068874;28;20205;-78
2021/06/30 07:44:33;;;;;;;9.07;6.63;;;;;;;17.69;83.65;100200.91;5071027;28;20296;-79
2021/06/30 07:47:00;;;;;;;10.43;6.60;;;;;;;17.68;83.63;100201.91;5070901;28;20219;-79
2021/06/30 07:49:26;;;;;;;8.80;7.07;;;;;;;17.66;83.36;100201.22;5086886;28;20234;-79
2021/06/30 07:51:53;;;;;;;8.57;6.77;;;;;;;17.64;83.35;100200.50;5073434;28;20215;-78
2021/06/30 07:54:19;;;;;;;7.20;6.13;;;;;;;17.64;83.36;100198.66;5085272;28;20590;-78
2021/06/30 07:56:46;;;;;;;7.73;7.03;;;;;;;17.66;83.58;100206.59;5089797;28;20214;-78
2021/06/30 07:59:14;;;;;;;9.33;6.63;;;;;;;17.68;83.40;100208.16;5074093;28;20285;-79
2021/06/30 08:01:42;;;;;;;7.07;6.37;;;;;;;17.69;83.46;100209.84;5059731;28;20618;-78
2021/06/30 08:04:09;;;;;;;7.60;6.27;;;;;;;17.72;83.45;100206.00;5067378;28;20198;-78
2021/06/30 08:06:36;;;;;;;7.00;6.30;;;;;;;17.75;83.64;100213.75;5084298;28;20211;-78
2021/06/30 08:09:03;;;;;;;8.00;6.90;;;;;;;17.76;83.46;100212.75;5073738;28;20228;-78
2021/06/30 08:11:30;;;;;;;7.00;6.30;;;;;;;17.80;83.51;100214.13;5084511;28;20266;-79
2021/06/30 08:13:56;;;;;;;7.37;5.73;;;;;;;17.83;83.52;100218.38;5074776;28;20204;-78
2021/06/30 08:16:24;;;;;;;7.67;6.00;;;;;;;17.84;83.36;100220.91;5075824;28;20213;-79
2021/06/30 08:18:51;;;;;;;8.03;6.33;;;;;;;17.87;83.29;100215.22;5077625;28;20223;-79
2021/06/30 08:21:18;;;;;;;7.33;6.33;;;;;;;17.88;83.28;100208.84;5075071;28;20223;-79
2021/06/30 08:23:45;;;;;;;7.20;6.40;;;;;;;17.88;83.16;100208.84;5078428;28;20685;-78
2021/06/30 08:26:12;;;;;;;7.00;6.03;;;;;;;17.91;83.27;100213.91;5074952;28;20204;-78
2021/06/30 08:28:39;;;;;;;9.63;7.07;;;;;;;17.95;83.02;100204.50;5078363;28;20700;-79
2021/06/30 08:31:06;;;;;;;9.50;6.27;;;;;;;18.00;83.53;100212.13;5075722;28;20223;-78
2021/06/30 08:33:34;;;;;;;7.57;6.87;;;;;;;18.04;83.55;100202.75;5079686;28;20242;-79
2021/06/30 08:36:00;;;;;;;7.17;6.30;;;;;;;18.07;83.45;100209.66;5083722;28;20218;-79
2021/06/30 08:38:27;;;;;;;7.00;6.10;;;;;;;18.10;83.49;100209.34;5083274;28;20204;-79
2021/06/30 08:40:55;;;;;;;6.23;5.40;;;;;;;18.09;83.10;100207.66;5078418;28;20238;-79
2021/06/30 08:43:21;;;;;;;6.20;5.43;;;;;;;18.08;82.85;100214.06;5086368;28;20209;-79
2021/06/30 08:45:49;;;;;;;5.80;5.00;;;;;;;18.07;82.89;100218.59;5074053;28;20299;-78
2021/06/30 08:48:17;;;;;;;5.63;5.10;;;;;;;18.08;82.71;100222.16;5075741;28;20235;-79
2021/06/30 08:50:46;;;;;;;8.13;5.80;;;;;;;18.09;82.52;100222.00;5073917;28;20225;-78
2021/06/30 08:53:14;;;;;;;6.03;5.40;;;;;;;18.11;82.25;100228.03;5074060;28;20218;-78
2021/06/30 08:55:44;;;;;;;5.97;5.37;;;;;;;18.14;82.42;100226.88;5071830;28;20221;-78
2021/06/30 08:58:11;;;;;;;5.57;4.93;;;;;;;18.18;82.43;100220.19;5060435;28;20196;-79
2021/06/30 09:00:38;;;;;;;6.77;6.07;;;;;;;18.20;82.41;100232.50;5090128;28;20584;-78
2021/06/30 09:03:11;;;;;;;6.27;5.60;;;;;;;18.22;82.22;100229.66;5069802;28;20656;-79
2021/06/30 09:08:44;;;;;;;18.77;7.37;;;;;;;18.26;82.11;100233.75;5080165;28;20304;-78
2021/06/30 09:11:11;;;;;;;5.80;5.20;;;;;;;18.27;82.03;100225.47;5071485;28;20221;-78
2021/06/30 09:13:37;;;;;;;6.33;5.57;;;;;;;18.31;81.92;100236.78;5065169;28;20250;-79
2021/06/30 09:16:04;;;;;;;6.47;5.43;;;;;;;18.33;82.11;100235.66;5070226;28;20206;-78
2021/06/30 09:18:34;;;;;;;6.63;5.70;;;;;;;18.33;81.95;100235.66;5072544;28;20247;-79
2021/06/30 09:21:15;;;;;;;7.07;5.70;;;;;;;18.36;81.71;100231.78;5083215;28;20257;-78
2021/06/30 09:23:58;;;;;;;5.90;5.30;;;;;;;18.36;81.71;100229.94;5073313;28;20216;-78
2021/06/30 09:26:24;;;;;;;7.37;5.70;;;;;;;18.37;81.55;100238.88;5069316;28;20197;-78
2021/06/30 09:29:01;;;;;;;7.70;6.07;;;;;;;18.40;81.53;100235.88;5074229;28;20713;-78
2021/06/30 09:31:28;;;;;;;6.13;5.43;;;;;;;18.41;81.39;100240.25;5080041;28;20200;-78
2021/06/30 09:33:56;;;;;;;6.43;5.77;;;;;;;18.43;81.56;100238.25;5085558;28;20207;-79
2021/06/30 09:36:24;;;;;;;7.23;6.53;;;;;;;18.47;81.52;100236.91;5076729;28;20196;-78
2021/06/30 09:38:52;;;;;;;10.10;6.80;;;;;;;18.52;81.44;100233.75;5079076;28;20192;-79
2021/06/30 09:41:26;;;;;;;7.00;6.20;;;;;;;18.57;81.61;100234.97;5080095;28;20332;-78
2021/06/30 09:44:02;;;;;;;9.13;6.50;;;;;;;18.60;81.39;100237.41;5080778;28;20197;-78
2021/06/30 09:46:28;;;;;;;8.13;6.30;;;;;;;18.64;81.21;100232.50;5075492;28;20207;-78
2021/06/30 09:48:57;;;;;;;7.00;6.33;;;;;;;18.66;80.95;100239.44;5081015;28;20218;-79
2021/06/30 09:51:24;;;;;;;9.90;7.20;;;;;;;18.66;81.05;100242.13;5068832;28;20205;-78
2021/06/30 09:53:51;;;;;;;9.17;7.30;;;;;;;18.68;81.00;100241.97;5067771;28;20213;-78
2021/06/30 09:56:33;;;;;;;8.77;7.00;;;;;;;18.70;80.83;100240.81;5059021;28;20201;-79
2021/06/30 09:59:21;;;;;;;9.20;8.13;;;;;;;18.71;80.82;100241.66;5083288;28;20194;-78
2021/06/30 10:02:00;;;;;;;9.27;7.97;;;;;;;18.69;80.60;100246.38;5065860;28;20705;-78
2021/06/30 10:04:32;;;;;;;15.07;9.47;;;;;;;18.68;80.41;100242.81;5078381;28;20231;-78
2021/06/30 10:07:04;;;;;;;11.47;9.60;;;;;;;18.71;80.49;100241.66;5083444;28;20642;-78
2021/06/30 10:09:31;;;;;;;11.43;10.10;;;;;;;18.72;80.13;100246.91;5081981;28;20238;-78
2021/06/30 10:12:05;;;;;;;13.70;12.03;;;;;;;18.72;80.70;100241.50;5094389;28;20196;-78
2021/06/30 10:14:33;;;;;;;12.50;10.73;;;;;;;18.72;80.39;100249.59;5078572;28;20563;-78
2021/06/30 10:17:01;;;;;;;12.60;11.30;;;;;;;18.75;80.32;100253.84;5078316;28;20240;-78
2021/06/30 10:19:28;;;;;;;13.83;11.40;;;;;;;18.75;80.03;100245.75;5085842;28;20238;-78
2021/06/30 10:21:54;;;;;;;13.17;11.87;;;;;;;18.73;79.66;100245.06;5086383;28;20211;-78
2021/06/30 10:24:22;;;;;;;15.60;12.27;;;;;;;18.72;79.92;100243.38;5078064;28;20215;-78
2021/06/30 10:26:50;;;;;;;13.43;12.10;;;;;;;18.73;79.97;100250.44;5092911;28;20201;-78
2021/06/30 10:29:19;;;;;;;15.33;12.33;;;;;;;18.76;79.69;100246.59;5073735;28;20233;-78
2021/06/30 10:31:49;;;;;;;15.30;12.80;;;;;;;18.76;79.72;100243.91;5076934;28;20206;-78
2021/06/30 10:34:16;;;;;;;14.00;12.47;;;;;;;18.77;79.79;100246.44;5077694;28;20597;-78
2021/06/30 10:36:45;;;;;;;15.40;12.80;;;;;;;18.80;79.97;100242.56;5077276;28;20238;-78
2021/06/30 10:39:12;;;;;;;16.50;12.57;;;;;;;18.80;79.82;100243.44;5077149;28;20204;-78
2021/06/30 10:41:42;;;;;;;16.37;13.33;;;;;;;18.81;79.88;100249.66;5077162;28;20218;-78
2021/06/30 10:44:11;;;;;;;13.80;12.23;;;;;;;18.81;79.75;100245.09;5077141;28;20187;-78
2021/06/30 10:46:40;;;;;;;14.53;13.07;;;;;;;18.84;79.81;100252.03;5077232;28;20210;-78
2021/06/30 10:49:29;;;;;;;13.97;12.57;;;;;;;18.87;79.84;100243.59;5076628;28;20225;-78
2021/06/30 10:51:58;;;;;;;13.70;12.33;;;;;;;18.91;79.81;100243.13;5077424;28;20299;-78
2021/06/30 10:54:40;;;;;;;14.23;12.80;;;;;;;18.92;79.55;100252.09;5077012;28;20244;-78
2021/06/30 10:57:27;;;;;;;13.73;12.43;;;;;;;18.93;79.29;100249.22;5077344;28;20756;-79
2021/06/30 11:00:17;;;;;;;16.33;13.43;;;;;;;18.94;79.44;100256.31;5077398;28;20218;-78
2021/06/30 11:02:45;;;;;;;14.47;13.07;;;;;;;18.99;79.44;100253.13;5077754;28;20193;-78
2021/06/30 11:05:35;;;;;;;14.80;13.07;;;;;;;19.03;79.36;100254.50;5077537;28;20202;-80
2021/06/30 11:08:01;;;;;;;14.33;12.83;;;;;;;19.07;79.42;100254.00;5077592;28;20627;-79
2021/06/30 11:10:55;;;;;;;14.40;12.50;;;;;;;19.10;79.33;100254.69;5065728;28;20238;-78
2021/06/30 11:13:21;;;;;;;13.10;11.80;;;;;;;19.11;79.31;100259.09;5037149;28;20219;-79
2021/06/30 11:15:48;;;;;;;14.50;13.00;;;;;;;19.15;79.39;100264.03;5078112;28;20577;-78
2021/06/30 11:18:45;;;;;;;15.17;13.63;;;;;;;19.17;79.36;100259.28;5070742;28;20206;-78
2021/06/30 11:21:15;;;;;;;12.83;11.50;;;;;;;19.21;79.06;100263.34;5071925;28;20226;-79
2021/06/30 11:23:43;;;;;;;14.17;11.40;;;;;;;19.22;79.01;100254.25;5073795;28;20213;-79
2021/06/30 11:26:34;;;;;;;13.20;11.83;;;;;;;19.20;78.71;100258.97;5076217;28;20196;-78
2021/06/30 11:29:00;;;;;;;13.23;11.93;;;;;;;19.20;78.51;100261.66;5076226;28;20226;-79